Time;durP1;ratioP1;P1;durP2;ratioP2;P2;SDS_P1;SDS_P2;PMS_P1;PMS_P2;Temp;Humidity;BMP_temperature;BMP_pressure;BME280_temperature;BME280_humidity;BME280_pressure;Samples;Min_cycle;Max_cycle;Signal;HPM_P1;HPM_P2
2021/04/29 00:01:09;;;;;;;10.57;9.70;;;24.20;58.20;;;;;;3633858;39;20551;-44
2021/04/29 00:03:36;;;;;;;10.47;9.77;;;24.20;58.30;;;;;;3634335;39;20479;-44
2021/04/29 00:06:03;;;;;;;10.63;9.73;;;24.20;58.30;;;;;;3634884;39;20496;-44
2021/04/29 00:08:30;;;;;;;11.07;10.07;;;24.20;58.30;;;;;;3634580;39;20361;-44
2021/04/29 00:10:57;;;;;;;11.33;10.70;;;24.20;58.30;;;;;;3632969;39;20477;-44
2021/04/29 00:13:24;;;;;;;11.20;10.50;;;24.20;58.30;;;;;;3633235;39;20761;-44
2021/04/29 00:15:51;;;;;;;10.83;10.13;;;24.20;58.40;;;;;;3633613;39;20361;-44
2021/04/29 00:18:18;;;;;;;12.73;11.77;;;24.20;58.40;;;;;;3632555;39;20479;-43
2021/04/29 00:20:45;;;;;;;11.60;10.50;;;24.20;58.40;;;;;;3631784;39;20482;-43
2021/04/29 00:23:28;;;;;;;11.07;10.07;;;24.20;58.40;;;;;;3625486;39;20584;-43
2021/04/29 00:26:02;;;;;;;11.30;10.40;;;24.20;58.50;;;;;;3633600;39;20531;-43
2021/04/29 00:28:28;;;;;;;10.95;9.98;;;24.20;58.50;;;;;;3632504;39;20485;-43
2021/04/29 00:30:55;;;;;;;10.50;9.80;;;24.20;58.60;;;;;;3633465;39;20226;-43
2021/04/29 00:33:21;;;;;;;10.35;9.75;;;24.20;58.60;;;;;;3632970;39;20719;-41
2021/04/29 00:35:48;;;;;;;11.03;10.30;;;24.20;58.60;;;;;;3633856;39;20573;-42
2021/04/29 00:38:16;;;;;;;12.00;11.20;;;24.20;58.60;;;;;;3633048;39;20478;-42
2021/04/29 00:40:42;;;;;;;11.87;11.07;;;24.20;58.60;;;;;;3633380;39;20486;-42
2021/04/29 00:43:11;;;;;;;10.83;10.23;;;24.20;58.70;;;;;;3632554;39;20480;-42
2021/04/29 00:45:37;;;;;;;10.60;9.97;;;24.20;58.70;;;;;;3632473;39;20471;-42
2021/04/29 00:48:05;;;;;;;11.63;10.93;;;24.10;58.70;;;;;;3632680;39;20475;-42
2021/04/29 00:50:32;;;;;;;12.20;11.30;;;24.20;58.80;;;;;;3622576;39;20494;-42
2021/04/29 00:52:58;;;;;;;11.17;10.47;;;24.10;58.70;;;;;;3632645;39;20475;-42
2021/04/29 00:55:25;;;;;;;11.00;10.37;;;24.10;58.80;;;;;;3631889;39;20735;-42
2021/04/29 00:57:51;;;;;;;11.60;10.57;;;24.10;58.90;;;;;;3632598;39;20503;-42
2021/04/29 01:00:20;;;;;;;11.37;10.50;;;24.10;58.90;;;;;;3632634;39;20779;-42
2021/04/29 01:02:50;;;;;;;11.00;10.35;;;24.10;58.90;;;;;;3632163;39;20566;-42
2021/04/29 01:05:23;;;;;;;11.10;10.20;;;24.10;58.90;;;;;;3632904;39;20483;-42
2021/04/29 01:07:54;;;;;;;12.30;11.50;;;24.10;58.90;;;;;;3632725;39;20475;-42
2021/04/29 01:10:26;;;;;;;11.48;10.65;;;24.10;58.90;;;;;;3631463;39;20607;-42
2021/04/29 01:13:01;;;;;;;11.93;10.97;;;24.10;58.90;;;;;;3633176;39;20559;-42
2021/04/29 01:15:29;;;;;;;12.50;11.60;;;24.10;58.90;;;;;;3623591;39;20812;-42
2021/04/29 01:17:55;;;;;;;11.70;10.73;;;24.10;58.90;;;;;;3633962;39;20396;-42
2021/04/29 01:20:24;;;;;;;11.97;10.80;;;24.10;58.90;;;;;;3633530;39;20467;-42
2021/04/29 01:23:06;;;;;;;11.90;10.97;;;24.10;59.00;;;;;;3634071;39;20468;-42
2021/04/29 01:25:36;;;;;;;11.50;10.80;;;24.10;58.90;;;;;;3633458;39;20695;-42
2021/04/29 01:28:03;;;;;;;11.63;10.87;;;24.10;59.00;;;;;;3632134;39;20483;-42
2021/04/29 01:30:32;;;;;;;11.10;10.40;;;24.10;59.00;;;;;;3633199;39;20783;-42
2021/04/29 01:32:59;;;;;;;11.70;11.00;;;24.10;59.00;;;;;;3632817;39;20488;-42
2021/04/29 01:35:25;;;;;;;12.40;11.57;;;24.10;59.00;;;;;;3633284;39;20480;-42
2021/04/29 01:37:54;;;;;;;11.30;10.60;;;24.00;58.90;;;;;;3634095;39;20851;-42
2021/04/29 01:40:21;;;;;;;11.40;10.43;;;24.00;59.00;;;;;;3633912;39;20486;-42
2021/04/29 01:42:48;;;;;;;11.93;11.27;;;24.10;59.10;;;;;;3633407;39;20631;-42
2021/04/29 01:45:16;;;;;;;12.23;11.30;;;24.00;59.10;;;;;;3633048;39;20495;-43
2021/04/29 01:47:43;;;;;;;10.70;10.00;;;24.10;59.20;;;;;;3634378;39;20493;-43
2021/04/29 01:50:12;;;;;;;10.73;10.13;;;24.00;59.20;;;;;;3633117;39;20482;-41
2021/04/29 01:52:39;;;;;;;12.63;11.70;;;24.00;59.20;;;;;;3633444;39;20488;-42
2021/04/29 01:55:08;;;;;;;10.00;9.50;;;24.10;59.20;;;;;;3633866;39;20707;-42
2021/04/29 01:57:35;;;;;;;11.40;10.70;;;24.00;59.20;;;;;;3632216;39;20861;-42
2021/04/29 02:00:01;;;;;;;11.03;10.27;;;24.00;59.30;;;;;;3633631;39;20478;-42
2021/04/29 02:02:28;;;;;;;10.87;10.27;;;24.00;59.30;;;;;;3633250;39;20484;-42
2021/04/29 02:04:55;;;;;;;11.10;10.40;;;24.00;59.30;;;;;;3632632;39;20475;-41
2021/04/29 02:07:21;;;;;;;11.30;10.70;;;24.00;59.30;;;;;;3632630;39;20488;-42
2021/04/29 02:09:49;;;;;;;10.27;9.57;;;24.00;59.40;;;;;;3633153;39;20572;-42
2021/04/29 02:12:16;;;;;;;10.63;9.98;;;24.00;59.30;;;;;;3632965;39;20713;-42
2021/04/29 02:14:47;;;;;;;12.20;11.40;;;24.00;59.30;;;;;;3633370;39;20249;-43
2021/04/29 02:17:27;;;;;;;11.50;10.90;;;24.00;59.30;;;;;;3632349;39;20491;-43
2021/04/29 02:19:56;;;;;;;12.00;11.30;;;24.00;59.40;;;;;;3632671;39;20472;-43
2021/04/29 02:22:25;;;;;;;11.50;10.80;;;24.00;59.40;;;;;;3632669;39;20772;-43
2021/04/29 02:24:54;;;;;;;11.73;10.93;;;24.00;59.40;;;;;;3632628;39;20501;-43
2021/04/29 02:27:21;;;;;;;11.43;10.77;;;23.90;59.40;;;;;;3633526;39;20763;-43
2021/04/29 02:29:47;;;;;;;11.47;10.80;;;24.00;59.50;;;;;;3633355;39;20216;-43
2021/04/29 02:32:16;;;;;;;11.30;10.50;;;24.00;59.60;;;;;;3632154;39;20483;-43
2021/04/29 02:34:43;;;;;;;10.77;10.17;;;23.90;59.50;;;;;;3632464;39;20672;-43
2021/04/29 02:37:11;;;;;;;10.57;9.97;;;24.00;59.50;;;;;;3633176;39;20834;-43
2021/04/29 02:39:38;;;;;;;11.40;10.80;;;24.00;59.60;;;;;;3632841;39;20491;-43
2021/04/29 02:42:05;;;;;;;11.60;10.90;;;23.90;59.60;;;;;;3632003;39;20559;-42
2021/04/29 02:44:31;;;;;;;11.87;11.13;;;23.90;59.60;;;;;;3632649;39;20553;-41
2021/04/29 02:46:58;;;;;;;11.43;10.73;;;23.90;59.70;;;;;;3632427;39;20500;-42
2021/04/29 02:49:26;;;;;;;11.32;10.73;;;23.90;59.70;;;;;;3631845;39;20684;-42
2021/04/29 02:51:59;;;;;;;11.80;11.10;;;23.90;59.70;;;;;;3632811;39;20226;-42
2021/04/29 02:54:27;;;;;;;10.73;10.13;;;23.90;59.70;;;;;;3632571;39;20758;-42
2021/04/29 02:57:01;;;;;;;11.17;10.57;;;23.90;59.70;;;;;;3633064;39;20529;-41
2021/04/29 02:59:27;;;;;;;11.07;10.48;;;23.90;59.70;;;;;;3632228;39;20489;-41
2021/04/29 03:01:54;;;;;;;11.60;10.90;;;23.90;59.80;;;;;;3632012;39;20228;-42
2021/04/29 03:04:21;;;;;;;11.63;10.93;;;23.90;59.80;;;;;;3633045;39;20518;-42
2021/04/29 03:06:47;;;;;;;12.73;11.83;;;23.90;59.80;;;;;;3631258;39;20834;-42
2021/04/29 03:09:14;;;;;;;11.70;11.10;;;23.90;59.80;;;;;;3633213;39;20758;-43
2021/04/29 03:11:41;;;;;;;12.10;11.40;;;23.90;59.80;;;;;;3635236;39;20486;-43
2021/04/29 03:14:08;;;;;;;11.70;10.93;;;23.90;59.80;;;;;;3634306;39;20708;-43
2021/04/29 03:16:34;;;;;;;10.97;10.47;;;23.90;59.90;;;;;;3623629;39;20499;-43
2021/04/29 03:19:01;;;;;;;11.83;11.13;;;23.90;59.90;;;;;;3634532;39;20482;-43
2021/04/29 03:21:27;;;;;;;12.40;11.70;;;23.90;59.90;;;;;;3634922;39;20459;-43
2021/04/29 03:23:54;;;;;;;11.60;11.10;;;23.90;59.90;;;;;;3633647;39;20514;-43
2021/04/29 03:26:20;;;;;;;11.67;11.07;;;23.90;60.00;;;;;;3634777;39;20526;-43
2021/04/29 03:28:48;;;;;;;11.70;11.10;;;23.90;60.00;;;;;;3624908;39;20451;-43
2021/04/29 03:31:14;;;;;;;11.52;10.93;;;23.90;60.00;;;;;;3633699;39;20866;-43
2021/04/29 03:33:49;;;;;;;11.63;11.00;;;23.90;60.00;;;;;;3633410;39;20377;-43
2021/04/29 03:36:15;;;;;;;11.27;10.70;;;23.90;60.00;;;;;;3632659;39;20407;-43
2021/04/29 03:38:51;;;;;;;12.13;11.47;;;23.90;59.90;;;;;;3633717;39;20490;-43
2021/04/29 03:41:17;;;;;;;12.03;11.43;;;24.00;59.90;;;;;;3633130;39;20601;-43
2021/04/29 03:43:44;;;;;;;11.60;11.10;;;23.90;59.80;;;;;;3632304;39;20527;-43
2021/04/29 03:46:11;;;;;;;11.50;10.80;;;24.00;59.80;;;;;;3632394;39;20475;-43
2021/04/29 03:48:38;;;;;;;11.70;11.20;;;24.00;59.80;;;;;;3632299;39;20715;-43
2021/04/29 03:51:04;;;;;;;12.50;11.90;;;24.00;59.70;;;;;;3632823;39;20547;-43
2021/04/29 03:53:31;;;;;;;12.30;11.67;;;24.10;59.80;;;;;;3632096;39;20463;-43
2021/04/29 03:55:58;;;;;;;12.37;11.70;;;24.10;59.80;;;;;;3632228;39;20715;-43
2021/04/29 03:58:24;;;;;;;12.33;11.53;;;24.00;59.70;;;;;;3633322;39;20471;-43
2021/04/29 04:00:51;;;;;;;10.90;10.40;;;24.00;59.70;;;;;;3633239;39;20877;-43
2021/04/29 04:03:19;;;;;;;12.63;11.50;;;24.10;59.70;;;;;;3631822;39;20486;-42
2021/04/29 04:05:45;;;;;;;11.37;10.83;;;24.10;59.70;;;;;;3632494;39;20486;-42
2021/04/29 04:08:12;;;;;;;12.67;11.97;;;24.20;59.60;;;;;;3630532;39;20567;-41
2021/04/29 04:10:57;;;;;;;12.23;11.50;;;24.20;59.60;;;;;;3631376;39;20471;-42
2021/04/29 04:13:24;;;;;;;12.40;11.80;;;24.20;59.60;;;;;;3633194;39;20475;-42
2021/04/29 04:15:51;;;;;;;12.67;12.07;;;24.20;59.60;;;;;;3627880;39;20521;-41
2021/04/29 04:18:17;;;;;;;12.53;11.77;;;24.30;59.60;;;;;;3628091;39;20537;-41
2021/04/29 04:20:45;;;;;;;12.20;11.60;;;24.30;59.60;;;;;;3628960;39;20564;-42
2021/04/29 04:23:11;;;;;;;12.20;11.60;;;24.30;59.50;;;;;;3627087;39;20475;-42
2021/04/29 04:25:38;;;;;;;12.07;11.47;;;24.30;59.50;;;;;;3628245;39;20536;-42
2021/04/29 04:28:04;;;;;;;12.30;11.70;;;24.40;59.60;;;;;;3626626;39;20570;-42
2021/04/29 04:30:31;;;;;;;10.97;10.50;;;24.40;59.50;;;;;;3626202;39;20935;-41
2021/04/29 04:32:57;;;;;;;12.17;11.43;;;24.40;59.50;;;;;;3626523;39;20533;-41
2021/04/29 04:35:24;;;;;;;11.87;11.20;;;24.40;59.50;;;;;;3626755;39;20477;-42
2021/04/29 04:37:51;;;;;;;11.40;10.80;;;24.40;59.40;;;;;;3627218;39;20479;-41
2021/04/29 04:40:18;;;;;;;11.23;10.73;;;24.50;59.40;;;;;;3626017;39;20484;-42
2021/04/29 04:42:45;;;;;;;11.57;11.00;;;24.50;59.40;;;;;;3626159;39;20233;-41
2021/04/29 04:45:12;;;;;;;11.18;10.68;;;24.60;59.40;;;;;;3627087;39;20489;-42
2021/04/29 04:47:38;;;;;;;11.80;11.30;;;24.60;59.40;;;;;;3625364;39;20216;-42
2021/04/29 04:50:07;;;;;;;10.35;9.95;;;24.60;59.40;;;;;;3626011;39;20532;-42
2021/04/29 04:52:34;;;;;;;11.70;11.20;;;24.60;59.40;;;;;;3615819;39;20221;-43
2021/04/29 04:55:01;;;;;;;11.13;10.63;;;24.60;59.40;;;;;;3624756;39;21149;-43
2021/04/29 04:57:28;;;;;;;12.20;11.50;;;24.60;59.30;;;;;;3623967;39;20491;-42
2021/04/29 04:59:54;;;;;;;11.00;10.50;;;24.70;59.30;;;;;;3624665;39;20948;-41
2021/04/29 05:02:21;;;;;;;10.97;10.47;;;24.70;59.20;;;;;;3625570;39;20468;-42
2021/04/29 05:04:47;;;;;;;10.35;9.95;;;24.70;59.20;;;;;;3625531;39;20876;-41
2021/04/29 05:07:14;;;;;;;10.67;10.27;;;24.70;59.20;;;;;;3625112;39;20825;-42
2021/04/29 05:09:42;;;;;;;10.90;10.30;;;24.70;59.20;;;;;;3623807;39;20736;-41
2021/04/29 05:12:10;;;;;;;10.33;9.87;;;24.80;59.20;;;;;;3623973;39;20576;-42
2021/04/29 05:14:37;;;;;;;11.20;10.70;;;24.80;59.10;;;;;;3623762;39;20479;-41
2021/04/29 05:17:04;;;;;;;10.48;9.88;;;24.80;59.10;;;;;;3623194;39;20234;-42
2021/04/29 05:19:31;;;;;;;10.70;10.30;;;24.80;59.10;;;;;;3624077;39;20228;-41
2021/04/29 05:21:57;;;;;;;10.20;9.70;;;24.80;59.10;;;;;;3624951;39;20474;-42
2021/04/29 05:24:25;;;;;;;10.20;9.70;;;24.80;59.10;;;;;;3615636;39;20477;-43
2021/04/29 05:26:51;;;;;;;10.57;10.07;;;24.80;59.00;;;;;;3621043;39;20986;-42
2021/04/29 05:29:19;;;;;;;10.03;9.63;;;24.80;59.00;;;;;;3620534;39;20480;-42
2021/04/29 05:31:46;;;;;;;10.60;10.10;;;24.80;59.00;;;;;;3621662;39;20473;-42
2021/04/29 05:34:12;;;;;;;10.87;10.17;;;24.90;59.10;;;;;;3622745;39;20511;-41
2021/04/29 05:36:39;;;;;;;10.93;10.43;;;24.90;59.00;;;;;;3620954;39;20490;-42
2021/04/29 05:39:06;;;;;;;10.60;9.85;;;24.90;59.00;;;;;;3620258;39;20480;-42
2021/04/29 05:41:33;;;;;;;11.57;10.77;;;25.00;59.10;;;;;;3620245;39;20226;-42
2021/04/29 05:44:00;;;;;;;12.33;11.10;;;25.00;59.00;;;;;;3619641;39;20486;-41
2021/04/29 05:46:28;;;;;;;11.32;10.60;;;25.00;59.20;;;;;;3621323;39;20475;-41
2021/04/29 05:48:56;;;;;;;12.07;10.95;;;25.00;59.40;;;;;;3619775;39;20471;-42
2021/04/29 05:51:24;;;;;;;14.47;13.20;;;25.10;59.60;;;;;;3619087;39;20224;-42
2021/04/29 05:53:50;;;;;;;26.13;23.70;;;25.00;59.60;;;;;;3619260;39;20486;-41
2021/04/29 05:56:18;;;;;;;122.33;96.67;;;25.10;59.80;;;;;;3618960;39;20698;-42
2021/04/29 05:58:46;;;;;;;129.03;103.83;;;25.10;59.90;;;;;;3618450;39;20973;-42
2021/04/29 06:01:13;;;;;;;145.40;107.60;;;25.10;60.20;;;;;;3616649;39;20538;-42
2021/04/29 06:03:40;;;;;;;139.97;108.40;;;25.10;60.40;;;;;;3616050;39;20496;-42
2021/04/29 06:06:07;;;;;;;141.63;110.03;;;25.10;60.50;;;;;;3604199;39;20531;-42
2021/04/29 06:08:34;;;;;;;123.50;96.30;;;25.10;60.70;;;;;;3605961;39;20489;-42
2021/04/29 06:11:01;;;;;;;114.27;86.63;;;25.10;60.90;;;;;;3604980;39;20862;-42
2021/04/29 06:13:29;;;;;;;96.77;80.87;;;25.20;61.10;;;;;;3606493;39;20537;-42
2021/04/29 06:15:57;;;;;;;85.70;69.27;;;25.10;61.00;;;;;;3602862;39;20492;-43
2021/04/29 06:18:24;;;;;;;70.97;58.67;;;25.20;61.10;;;;;;3603713;39;20570;-42
2021/04/29 06:20:52;;;;;;;57.37;50.80;;;25.20;61.40;;;;;;3603435;39;20489;-41
2021/04/29 06:23:20;;;;;;;51.03;45.47;;;25.20;61.70;;;;;;3603134;39;20484;-42
2021/04/29 06:25:47;;;;;;;49.23;43.37;;;25.20;62.10;;;;;;3603863;39;20473;-41
2021/04/29 06:28:15;;;;;;;45.87;41.00;;;25.20;62.20;;;;;;3602445;39;20511;-41
2021/04/29 06:30:42;;;;;;;46.47;38.80;;;25.20;62.30;;;;;;3603618;39;21231;-41
2021/04/29 06:33:11;;;;;;;39.07;34.97;;;25.20;62.00;;;;;;3603243;39;20979;-41
2021/04/29 06:35:37;;;;;;;36.07;32.17;;;25.20;62.20;;;;;;3602206;39;20495;-42
2021/04/29 06:38:05;;;;;;;34.80;31.30;;;25.20;62.20;;;;;;3601626;39;20486;-42
2021/04/29 06:40:32;;;;;;;30.40;27.53;;;25.20;62.30;;;;;;3587037;39;20481;-42
2021/04/29 06:42:58;;;;;;;32.67;25.80;;;25.20;62.40;;;;;;3591401;39;20472;-42
2021/04/29 06:45:26;;;;;;;23.37;21.47;;;25.20;62.40;;;;;;3590339;39;20855;-42
2021/04/29 06:47:54;;;;;;;22.37;20.43;;;25.20;62.40;;;;;;3589390;39;20499;-42
2021/04/29 06:50:21;;;;;;;23.20;20.93;;;25.20;62.40;;;;;;3591113;39;20529;-42
2021/04/29 06:52:53;;;;;;;19.93;18.23;;;25.20;62.60;;;;;;3602736;39;20751;-42
2021/04/29 06:55:21;;;;;;;18.30;16.57;;;25.20;62.30;;;;;;3603923;39;21183;-41
2021/04/29 06:57:48;;;;;;;18.77;17.17;;;25.20;62.30;;;;;;3585324;39;21170;-42
2021/04/29 07:00:17;;;;;;;15.57;14.27;;;25.20;62.40;;;;;;3586531;39;20324;-42
2021/04/29 07:02:45;;;;;;;13.70;12.70;;;25.20;62.30;;;;;;3598274;39;20481;-43
2021/04/29 07:05:12;;;;;;;13.83;12.50;;;25.10;62.20;;;;;;3600121;39;20538;-41
2021/04/29 07:07:40;;;;;;;13.57;12.43;;;25.10;62.20;;;;;;3600957;39;20530;-42
2021/04/29 07:10:09;;;;;;;12.60;11.67;;;25.10;62.80;;;;;;3607288;39;20485;-41
2021/04/29 07:12:37;;;;;;;11.77;10.93;;;25.10;61.90;;;;;;3600379;39;20916;-42
2021/04/29 07:15:04;;;;;;;11.40;10.80;;;25.10;61.80;;;;;;3594089;39;20231;-41
2021/04/29 07:17:31;;;;;;;11.07;10.27;;;25.10;61.70;;;;;;3597724;39;20523;-42
2021/04/29 07:19:59;;;;;;;10.50;9.80;;;25.10;61.70;;;;;;3600555;39;20486;-42
2021/04/29 07:22:26;;;;;;;9.40;8.90;;;25.10;61.60;;;;;;3595719;39;20477;-41
2021/04/29 07:24:54;;;;;;;9.40;8.80;;;25.10;61.60;;;;;;3596293;39;20549;-42
2021/04/29 07:27:21;;;;;;;9.73;8.70;;;25.10;61.50;;;;;;3602779;39;20910;-41
2021/04/29 07:29:48;;;;;;;8.90;8.40;;;25.10;61.50;;;;;;3601813;39;20485;-42
2021/04/29 07:32:16;;;;;;;9.00;8.50;;;25.10;61.50;;;;;;3602708;39;20470;-42
2021/04/29 07:34:44;;;;;;;9.43;8.82;;;25.10;61.50;;;;;;3596703;39;20566;-42
2021/04/29 07:37:10;;;;;;;9.70;9.00;;;25.20;61.60;;;;;;3601551;39;20239;-42
2021/04/29 07:39:38;;;;;;;9.52;8.73;;;25.20;61.50;;;;;;3600708;39;20493;-42
2021/04/29 07:42:06;;;;;;;9.37;8.73;;;25.20;61.50;;;;;;3597000;39;20547;-42
2021/04/29 07:44:32;;;;;;;9.25;8.75;;;25.20;61.50;;;;;;3599581;39;20478;-42
2021/04/29 07:47:01;;;;;;;8.52;8.02;;;25.20;61.90;;;;;;3599965;39;20960;-44
2021/04/29 07:49:29;;;;;;;8.57;8.10;;;25.20;61.40;;;;;;3597759;39;20317;-44
2021/04/29 07:51:56;;;;;;;8.43;7.93;;;25.10;58.90;;;;;;3595185;39;20485;-44
2021/04/29 07:54:23;;;;;;;8.43;8.13;;;24.90;59.00;;;;;;3593870;39;20748;-44
2021/04/29 07:56:51;;;;;;;7.97;7.57;;;24.90;60.10;;;;;;3596101;39;20499;-45
2021/04/29 07:59:19;;;;;;;8.90;8.30;;;24.90;60.80;;;;;;3594539;39;20785;-45
2021/04/29 08:01:45;;;;;;;8.80;8.30;;;24.90;61.20;;;;;;3587456;39;20512;-44
2021/04/29 08:04:14;;;;;;;8.80;8.10;;;24.90;61.50;;;;;;3587538;39;20489;-44
2021/04/29 08:06:42;;;;;;;9.50;8.65;;;24.90;61.60;;;;;;3584773;39;20482;-44
2021/04/29 08:09:09;;;;;;;9.40;8.70;;;24.90;61.70;;;;;;3587039;39;20306;-44
2021/04/29 08:11:36;;;;;;;8.43;8.10;;;24.90;61.70;;;;;;3602260;39;21154;-45
2021/04/29 08:14:03;;;;;;;8.97;8.40;;;24.80;61.70;;;;;;3616594;39;20476;-45
2021/04/29 08:16:31;;;;;;;9.13;8.53;;;24.80;61.60;;;;;;3612003;39;21400;-44
2021/04/29 08:18:58;;;;;;;9.63;9.00;;;24.80;61.80;;;;;;3616681;39;20484;-45
2021/04/29 08:21:26;;;;;;;9.17;8.13;;;24.80;61.80;;;;;;3615565;39;20479;-45
2021/04/29 08:23:55;;;;;;;10.13;9.33;;;24.90;61.90;;;;;;3614896;39;20576;-45
2021/04/29 08:26:22;;;;;;;11.50;9.80;;;24.90;61.90;;;;;;3609167;39;20573;-45
2021/04/29 08:28:48;;;;;;;9.87;9.17;;;24.90;61.80;;;;;;3606986;39;20484;-45
2021/04/29 08:31:16;;;;;;;11.87;9.70;;;24.90;61.90;;;;;;3605748;39;20480;-44
2021/04/29 08:33:44;;;;;;;10.07;9.17;;;24.90;62.00;;;;;;3611615;39;20475;-45
2021/04/29 08:36:12;;;;;;;9.60;9.10;;;24.80;62.10;;;;;;3617117;39;20901;-45
2021/04/29 08:38:40;;;;;;;10.87;9.93;;;24.80;62.90;;;;;;3617447;39;20479;-45
2021/04/29 08:41:07;;;;;;;11.07;10.00;;;24.80;62.30;;;;;;3612886;39;20473;-45
2021/04/29 08:43:33;;;;;;;12.60;10.63;;;24.80;62.30;;;;;;3611238;39;20532;-45
2021/04/29 08:46:01;;;;;;;10.70;9.60;;;24.80;62.30;;;;;;3607318;39;20897;-44
2021/04/29 08:48:27;;;;;;;12.40;10.10;;;24.80;62.40;;;;;;3607790;39;20616;-44
2021/04/29 08:50:55;;;;;;;10.27;9.50;;;24.70;62.30;;;;;;3606921;39;21117;-44
2021/04/29 08:53:22;;;;;;;11.93;9.97;;;24.80;62.40;;;;;;3615699;39;20223;-44
2021/04/29 08:55:50;;;;;;;11.63;10.93;;;24.80;62.30;;;;;;3615396;39;20519;-44
2021/04/29 08:58:19;;;;;;;11.37;10.60;;;24.80;62.30;;;;;;3611512;39;20484;-44
2021/04/29 09:00:58;;;;;;;11.57;10.57;;;24.80;62.10;;;;;;3617698;39;20484;-44
2021/04/29 09:03:30;;;;;;;10.50;9.90;;;24.80;62.10;;;;;;3618539;39;20516;-44
2021/04/29 09:05:59;;;;;;;11.57;9.77;;;24.80;62.10;;;;;;3615134;39;20479;-44
2021/04/29 09:08:30;;;;;;;12.52;10.13;;;24.80;62.00;;;;;;3613013;39;20243;-44
2021/04/29 09:11:10;;;;;;;10.97;10.07;;;24.80;61.60;;;;;;3607877;39;20227;-44
2021/04/29 09:13:37;;;;;;;11.23;9.90;;;24.90;61.40;;;;;;3606683;39;20498;-44
2021/04/29 09:16:11;;;;;;;10.25;9.52;;;24.90;61.10;;;;;;3611891;39;20493;-44
2021/04/29 09:18:40;;;;;;;10.90;10.30;;;24.90;61.00;;;;;;3631523;39;20245;-44
2021/04/29 09:21:11;;;;;;;10.10;9.40;;;24.90;61.00;;;;;;3627563;39;20490;-44
2021/04/29 09:23:41;;;;;;;10.27;9.20;;;24.90;60.90;;;;;;3629763;39;20479;-44
2021/04/29 09:26:11;;;;;;;10.60;9.70;;;24.90;61.00;;;;;;3627246;39;21089;-44
2021/04/29 09:28:41;;;;;;;10.18;9.57;;;24.90;60.90;;;;;;3621610;39;21187;-44
2021/04/29 09:31:11;;;;;;;10.13;9.40;;;24.90;60.80;;;;;;3616202;39;20229;-44
2021/04/29 09:33:40;;;;;;;10.50;9.80;;;24.90;60.80;;;;;;3622341;39;20533;-44
2021/04/29 09:36:21;;;;;;;10.50;9.70;;;24.90;60.70;;;;;;3612853;39;21164;-44
2021/04/29 09:38:53;;;;;;;10.93;10.00;;;24.90;60.70;;;;;;3617555;39;20657;-44
2021/04/29 09:41:23;;;;;;;11.03;10.00;;;24.90;60.70;;;;;;3621014;39;20512;-44
2021/04/29 09:43:55;;;;;;;10.60;9.80;;;24.90;60.70;;;;;;3611283;39;20492;-44
2021/04/29 09:46:23;;;;;;;11.13;10.03;;;24.90;60.70;;;;;;3611064;39;20485;-44
2021/04/29 09:48:51;;;;;;;11.77;10.17;;;24.90;60.70;;;;;;3609131;39;20506;-45
2021/04/29 09:51:19;;;;;;;11.13;10.00;;;24.80;60.70;;;;;;3606522;39;20831;-44
2021/04/29 09:53:49;;;;;;;11.03;10.10;;;24.80;60.80;;;;;;3611368;39;21278;-44
2021/04/29 09:56:20;;;;;;;10.27;9.68;;;24.80;61.00;;;;;;3621003;39;20512;-44
2021/04/29 09:58:55;;;;;;;9.50;8.97;;;24.70;60.90;;;;;;3618213;39;20237;-44
2021/04/29 10:01:26;;;;;;;10.60;9.60;;;24.70;61.10;;;;;;3619045;39;20477;-44
2021/04/29 10:03:55;;;;;;;12.73;10.00;;;24.70;61.30;;;;;;3616964;39;20478;-44
2021/04/29 10:06:23;;;;;;;10.77;9.50;;;24.70;61.40;;;;;;3609563;39;20492;-44
2021/04/29 10:08:51;;;;;;;11.00;9.97;;;24.60;61.30;;;;;;3606796;39;20485;-44
2021/04/29 10:11:22;;;;;;;12.13;10.57;;;24.70;61.60;;;;;;3607460;39;20476;-44
2021/04/29 10:13:55;;;;;;;10.60;9.90;;;24.60;61.50;;;;;;3609225;39;20885;-44
2021/04/29 10:16:23;;;;;;;10.67;9.80;;;24.60;61.60;;;;;;3610671;39;20493;-45
2021/04/29 10:18:51;;;;;;;11.70;10.67;;;24.60;61.60;;;;;;3617012;39;20507;-44
2021/04/29 10:21:19;;;;;;;11.43;9.90;;;24.60;61.70;;;;;;3609087;39;20505;-45
2021/04/29 10:23:46;;;;;;;12.40;11.07;;;24.60;61.90;;;;;;3607886;39;20524;-44
2021/04/29 10:26:25;;;;;;;20.33;10.60;;;24.60;62.70;;;;;;3607204;39;20993;-44
2021/04/29 10:28:58;;;;;;;13.80;10.97;;;24.60;62.00;;;;;;3605319;39;20472;-44
2021/04/29 10:31:28;;;;;;;13.37;10.90;;;24.60;61.90;;;;;;3606236;39;20573;-44
2021/04/29 10:33:57;;;;;;;13.82;10.50;;;24.60;62.00;;;;;;3605663;39;20934;-44
2021/04/29 10:36:35;;;;;;;12.23;10.10;;;24.60;62.10;;;;;;3611494;39;20235;-44
2021/04/29 10:39:15;;;;;;;13.30;11.40;;;24.60;62.20;;;;;;3610859;39;20496;-44
2021/04/29 10:41:43;;;;;;;15.60;11.67;;;24.60;62.50;;;;;;3617279;39;20480;-44
2021/04/29 10:44:13;;;;;;;15.07;12.00;;;24.60;62.50;;;;;;3618836;39;20495;-44
2021/04/29 10:46:42;;;;;;;12.60;11.30;;;24.60;62.50;;;;;;3611048;39;20549;-44
2021/04/29 10:49:12;;;;;;;15.63;13.43;;;24.60;62.50;;;;;;3613025;39;20488;-44
2021/04/29 10:51:42;;;;;;;15.57;13.97;;;24.60;62.60;;;;;;3606504;39;20496;-44
2021/04/29 10:54:19;;;;;;;17.43;12.67;;;24.60;62.80;;;;;;3608618;39;20694;-44
2021/04/29 10:57:03;;;;;;;15.97;14.57;;;24.60;62.80;;;;;;3607071;39;20479;-44
2021/04/29 10:59:42;;;;;;;14.90;13.33;;;24.60;63.10;;;;;;3611250;39;20496;-44
2021/04/29 11:02:26;;;;;;;18.53;14.43;;;24.60;63.00;;;;;;3607096;39;20812;-44
2021/04/29 11:04:53;;;;;;;16.47;13.10;;;24.60;62.90;;;;;;3616635;39;20537;-44
2021/04/29 11:07:23;;;;;;;19.27;14.82;;;24.60;62.90;;;;;;3618259;39;20801;-44
2021/04/29 11:10:05;;;;;;;15.32;13.77;;;24.60;63.00;;;;;;3617324;39;20234;-44
2021/04/29 11:12:43;;;;;;;16.60;13.97;;;24.60;63.00;;;;;;3614638;39;20267;-44
2021/04/29 11:15:27;;;;;;;19.83;13.93;;;24.60;62.90;;;;;;3614818;39;20494;-44
2021/04/29 11:18:03;;;;;;;15.27;13.70;;;24.60;62.80;;;;;;3618506;39;20219;-44
2021/04/29 11:20:47;;;;;;;15.87;13.50;;;24.70;62.90;;;;;;3617337;39;20486;-45
2021/04/29 11:23:16;;;;;;;16.40;14.90;;;24.70;62.90;;;;;;3618386;39;20593;-44
2021/04/29 11:25:43;;;;;;;15.23;13.70;;;24.60;62.70;;;;;;3612449;39;21009;-44
2021/04/29 11:28:10;;;;;;;13.90;12.60;;;24.70;62.90;;;;;;3608017;39;20252;-45
2021/04/29 11:30:39;;;;;;;14.73;13.23;;;24.70;63.00;;;;;;3610470;39;20492;-44
2021/04/29 11:33:09;;;;;;;14.50;13.20;;;24.60;62.80;;;;;;3608221;39;20565;-44
2021/04/29 11:35:37;;;;;;;13.70;12.47;;;24.60;62.90;;;;;;3615756;39;20493;-44
2021/04/29 11:38:07;;;;;;;13.27;12.07;;;24.60;62.90;;;;;;3608839;39;20465;-45
2021/04/29 11:40:35;;;;;;;12.57;11.70;;;24.60;62.80;;;;;;3613260;39;20491;-44
2021/04/29 11:43:02;;;;;;;13.60;12.50;;;24.60;62.70;;;;;;3615448;39;20475;-44
2021/04/29 11:45:31;;;;;;;13.93;12.60;;;24.60;62.70;;;;;;3613176;39;20934;-44
2021/04/29 11:48:00;;;;;;;14.37;13.37;;;24.60;62.70;;;;;;3619718;39;20227;-44
2021/04/29 11:50:29;;;;;;;13.63;12.63;;;24.60;62.70;;;;;;3619274;39;20809;-44
2021/04/29 11:53:07;;;;;;;12.80;11.87;;;24.60;62.70;;;;;;3621037;39;20913;-44
2021/04/29 11:55:35;;;;;;;18.23;13.80;;;24.60;62.90;;;;;;3619126;39;20478;-45
2021/04/29 11:58:04;;;;;;;13.10;12.30;;;24.60;63.00;;;;;;3621106;39;20497;-44
2021/04/29 12:00:35;;;;;;;14.17;12.50;;;24.60;63.20;;;;;;3614932;39;20473;-44
2021/04/29 12:03:05;;;;;;;13.23;12.00;;;24.50;63.10;;;;;;3601185;39;20474;-44
2021/04/29 12:05:37;;;;;;;13.80;12.70;;;24.60;63.20;;;;;;3620852;39;20471;-44
2021/04/29 12:08:05;;;;;;;13.70;12.57;;;24.60;63.10;;;;;;3620269;39;20475;-44
2021/04/29 12:10:46;;;;;;;13.47;12.47;;;24.50;63.10;;;;;;3621112;39;20466;-44
2021/04/29 12:13:14;;;;;;;13.83;12.50;;;24.50;63.10;;;;;;3618162;39;20788;-44
2021/04/29 12:15:40;;;;;;;13.23;12.03;;;24.60;63.20;;;;;;3609871;39;20805;-44
2021/04/29 12:18:15;;;;;;;12.85;11.55;;;24.50;63.10;;;;;;3611138;39;20488;-44
2021/04/29 12:20:42;;;;;;;12.93;11.77;;;24.50;63.10;;;;;;3619615;39;20850;-44
2021/04/29 12:23:12;;;;;;;12.60;11.80;;;24.50;63.10;;;;;;3619220;39;20470;-44
2021/04/29 12:25:58;;;;;;;13.27;12.17;;;24.60;63.10;;;;;;3614738;39;20236;-44
2021/04/29 12:28:31;;;;;;;12.93;11.93;;;24.50;63.10;;;;;;3599589;39;20483;-44
2021/04/29 12:30:58;;;;;;;13.50;12.50;;;24.60;63.10;;;;;;3618143;39;20472;-44
2021/04/29 12:33:30;;;;;;;12.70;11.70;;;24.50;63.00;;;;;;3619929;39;20500;-44
2021/04/29 12:36:08;;;;;;;12.47;11.47;;;24.50;62.90;;;;;;3613303;39;20963;-44
2021/04/29 12:38:36;;;;;;;13.10;12.23;;;24.50;63.00;;;;;;3609438;39;20488;-44